Latest Coastal Weather Observations for Aireys Inlet

IDV60701

Issued at 4:31 pm EST Friday 29 May 2015 (issued every 10 minutes, with the page automatically refreshed every 10 minutes)

About coastal observations | Map of coastal stations | Coastal observations for VIC | Marine services | Other Formats
Station Details ID: 090180 Name: AIREYS INLET Lat: -38.46 Lon: 144.09 Height: 95.0 m
Data from the previous 72 hours. | See also: Recent months at Aireys Inlet
Date/Time
EST
Temp

°C
Wind Pressure Rain
since 9am
mm
Weather Cloud Vis
km
Sea
Height
m
Swell
Dir
 
Speed
knots
Gust
knots
hPa Trend Height
m
Period
s
Dir
29/04:30pm 11.8 W 8 15 - - 0.0 - - - - - - -
29/04:00pm 12.1 WNW 8 15 - - 0.0 - - - - - - -
29/03:30pm 12.5 WNW 7 12 - - 0.0 - - - - - - -
29/03:00pm 12.7 NW 9 18 - - 0.0 - - - - - - -
29/02:30pm 12.9 NW 12 19 - - 0.0 - - - - - - -
29/02:00pm 13.9 WNW 10 18 - - 0.0 - - - - - - -
29/01:30pm 13.2 WNW 6 9 - - 0.0 - - - - - - -
29/01:00pm 14.0 NW 8 14 - - 0.0 - - - - - - -
29/12:30pm 12.1 NW 7 10 - - 0.0 - - - - - - -
29/12:00pm 11.4 WNW 8 17 - - 0.0 - - - - - - -
29/11:30am 11.2 NNW 6 9 - - 0.0 - - - - - - -
29/11:00am 10.6 NW 6 11 - - 0.0 - - - - - - -
29/10:30am 11.2 NW 8 12 - - 0.0 - - - - - - -
29/10:00am 10.1 WNW 8 13 - - 0.0 - - - - - - -
29/09:30am 9.6 NW 7 12 - - 0.0 - - - - - - -
29/09:00am 8.8 WNW 4 9 - - 1.0 - - - - - - -
29/08:30am 8.1 NW 5 9 - - 1.0 - - - - - - -
29/08:00am 8.0 WNW 8 11 - - 1.0 - - - - - - -
29/07:30am 7.7 WNW 8 12 - - 1.0 - - - - - - -
29/07:00am 7.5 NW 3 5 - - 1.0 - - - - - - -
29/06:30am 7.6 NW 5 8 - - 1.0 - - - - - - -
29/06:00am 8.0 NW 11 16 - - 1.0 - - - - - - -
29/05:30am 8.0 NW 12 16 - - 1.0 - - - - - - -
29/05:00am 8.4 WNW 11 16 - - 1.0 - - - - - - -
29/04:30am 8.6 WNW 12 16 - - 1.0 - - - - - - -
29/04:00am 8.8 NW 8 13 - - 1.0 - - - - - - -
29/03:30am 9.1 NW 6 13 - - 1.0 - - - - - - -
29/03:00am 9.2 NNW 4 7 - - 1.0 - - - - - - -
29/02:30am 9.5 SSE 1 2 - - 1.0 - - - - - - -
29/02:00am 9.5 S 2 5 - - 1.0 - - - - - - -
29/01:30am 9.6 W 4 12 - - 1.0 - - - - - - -
29/01:00am 9.8 WSW 5 13 - - 1.0 - - - - - - -
29/12:30am 10.3 SSW 4 8 - - 1.0 - - - - - - -
 
Date/Time
EST
Temp

°C
Wind Pressure Rain
since 9am
mm
Weather Cloud Vis
km
Sea
Height
m
Swell
Dir
 
Speed
knots
Gust
knots
hPa Trend Height
m
Period
s
Dir
28/11:30pm 10.4 W 5 12 - - 1.0 - - - - - - -
28/11:00pm 10.8 W 5 9 - - 1.0 - - - - - - -
28/10:30pm 11.0 WNW 7 20 - - 1.0 - - - - - - -
28/10:00pm 10.8 WNW 7 15 - - 1.0 - - - - - - -
28/09:30pm 11.1 WNW 8 17 - - 1.0 - - - - - - -
28/09:00pm 11.2 WNW 9 17 - - 1.0 - - - - - - -
28/08:30pm 11.2 W 8 17 - - 1.0 - - - - - - -
28/08:00pm 11.2 W 5 8 - - 1.0 - - - - - - -
28/07:30pm 11.4 WSW 9 16 - - 1.0 - - - - - - -
28/07:00pm 12.0 WNW 12 20 - - 1.0 - - - - - - -
28/06:30pm 12.6 WNW 19 30 - - 0.0 - - - - - - -
28/06:00pm 13.7 WNW 16 27 - - 0.0 - - - - - - -
28/05:30pm 14.2 WNW 16 27 - - 0.0 - - - - - - -
28/05:00pm 16.6 WNW 17 28 - - 0.0 - - - - - - -
28/04:30pm 17.3 NW 20 31 - - 0.0 - - - - - - -
28/04:00pm 17.6 NW 19 29 - - 0.0 - - - - - - -
28/03:30pm 18.2 NW 21 39 - - 0.0 - - - - - - -
28/03:00pm 18.4 NW 21 40 - - 0.0 - - - - - - -
28/02:30pm 18.3 NW 23 33 - - 0.0 - - - - - - -
28/02:00pm 17.8 NW 21 38 - - 0.0 - - - - - - -
28/01:30pm 17.7 NW 18 34 - - 0.0 - - - - - - -
28/01:02pm 17.7 NNW 18 28 - - 0.0 - - - - - - -
28/01:00pm 17.5 NNW 19 28 - - 0.0 - - - - - - -
28/12:32pm 17.4 NNW 15 26 - - 0.0 - - - - - - -
28/12:30pm 17.5 NNW 14 23 - - 0.0 - - - - - - -
28/12:00pm 16.1 NNW 15 28 - - 0.0 - - - - - - -
28/11:30am 15.2 NNW 17 28 - - 0.0 - - - - - - -
28/11:23am 15.2 NNW 16 28 - - 0.0 - - - - - - -
28/11:00am 15.8 NNW 10 19 - - 0.0 - - - - - - -
28/10:30am 15.0 NW 7 13 - - 0.0 - - - - - - -
28/10:00am 13.7 NNW 8 13 - - 0.0 - - - - - - -
28/09:30am 14.1 NW 6 11 - - 0.0 - - - - - - -
28/09:00am 13.5 WNW 3 6 - - 0.0 - - - - - - -
28/08:30am 12.8 NNE 5 8 - - 0.0 - - - - - - -
28/08:00am 12.3 N 6 9 - - 0.0 - - - - - - -
28/07:30am 12.4 N 6 10 - - 0.0 - - - - - - -
28/07:00am 12.7 N 6 10 - - 0.0 - - - - - - -
28/06:30am 12.4 NNW 5 8 - - 0.0 - - - - - - -
28/06:00am 12.6 NNW 5 8 - - 0.0 - - - - - - -
28/05:30am 12.8 NNW 5 9 - - 0.0 - - - - - - -
28/05:00am 13.0 N 6 9 - - 0.0 - - - - - - -
28/04:30am 13.3 N 6 15 - - 0.0 - - - - - - -
28/04:00am 13.5 NNW 7 13 - - 0.0 - - - - - - -
28/03:30am 13.5 N 6 11 - - 0.0 - - - - - - -
28/03:00am 13.6 N 7 12 - - 0.0 - - - - - - -
28/02:30am 13.5 N 6 10 - - 0.0 - - - - - - -
28/02:00am 13.9 N 6 9 - - 0.0 - - - - - - -
28/01:30am 14.3 NNW 4 6 - - 0.0 - - - - - - -
28/01:00am 14.4 NNW 6 9 - - 0.0 - - - - - - -
28/12:30am 14.4 NW 7 10 - - 0.0 - - - - - - -
28/12:00am 14.3 NNW 9 16 - - 0.0 - - - - - - -
 
Date/Time
EST
Temp

°C
Wind Pressure Rain
since 9am
mm
Weather Cloud Vis
km
Sea
Height
m
Swell
Dir
 
Speed
knots
Gust
knots
hPa Trend Height
m
Period
s
Dir
27/11:30pm 14.2 NNW 10 13 - - 0.0 - - - - - - -
27/11:00pm 14.0 NNW 9 15 - - 0.0 - - - - - - -
27/10:30pm 14.1 NNW 9 14 - - 0.0 - - - - - - -
27/10:00pm 13.9 NNW 8 13 - - 0.0 - - - - - - -
27/09:30pm 13.4 NNW 5 9 - - 0.0 - - - - - - -
27/09:00pm 13.7 N 4 7 - - 0.0 - - - - - - -
27/08:30pm 14.2 N 8 13 - - 0.0 - - - - - - -
27/08:00pm 14.4 N 12 17 - - 0.0 - - - - - - -
27/07:30pm 14.6 N 13 20 - - 0.0 - - - - - - -
27/07:00pm 15.0 N 12 20 - - 0.0 - - - - - - -
27/06:30pm 15.7 N 13 18 - - 0.0 - - - - - - -
27/06:00pm 16.3 NNW 15 21 - - 0.0 - - - - - - -
27/05:30pm 16.3 NNW 11 17 - - 0.0 - - - - - - -
27/05:00pm 16.8 NNW 10 14 - - 0.0 - - - - - - -
27/04:30pm 17.3 NNW 10 16 - - 0.0 - - - - - - -
27/04:00pm 17.3 NW 12 20 - - 0.0 - - - - - - -
27/03:30pm 17.4 NNW 12 21 - - 0.0 - - - - - - -
27/03:00pm 17.3 NNW 9 14 - - 0.0 - - - - - - -
27/02:30pm 17.9 NW 9 15 - - 0.0 - - - - - - -
27/02:00pm 18.1 NW 12 22 - - 0.0 - - - - - - -
27/01:30pm 18.0 NNW 10 18 - - 0.0 - - - - - - -
27/01:00pm 17.7 NNW 9 16 - - 0.0 - - - - - - -
27/12:30pm 17.3 NNW 8 13 - - 0.0 - - - - - - -
27/12:00pm 16.5 NNW 11 17 - - 0.0 - - - - - - -
27/11:30am 15.8 NNW 11 21 - - 0.0 - - - - - - -
27/11:00am 15.2 NNW 12 22 - - 0.0 - - - - - - -
27/10:30am 13.4 NW 12 18 - - 0.0 - - - - - - -
27/10:00am 13.4 NW 13 19 - - 0.0 - - - - - - -
27/09:30am 13.0 NW 14 19 - - 0.0 - - - - - - -
27/09:00am 13.0 NW 16 22 - - 0.4 - - - - - - -
27/08:30am 12.8 NW 14 22 - - 0.4 - - - - - - -
27/08:00am 12.2 NW 7 12 - - 0.4 - - - - - - -
27/07:30am 10.6 E 4 7 - - 0.4 - - - - - - -
27/07:00am 11.7 N 5 9 - - 0.4 - - - - - - -
27/06:30am 11.3 NNE 5 11 - - 0.4 - - - - - - -
27/06:00am 11.1 NE 4 7 - - 0.4 - - - - - - -
27/05:30am 11.7 N 5 8 - - 0.4 - - - - - - -
27/05:00am 10.9 NW 7 9 - - 0.4 - - - - - - -
27/04:30am 11.5 NW 10 14 - - 0.0 - - - - - - -
27/04:00am 11.8 NW 13 18 - - 0.0 - - - - - - -
27/03:30am 13.0 NW 14 20 - - 0.0 - - - - - - -
27/03:00am 13.2 NW 11 20 - - 0.0 - - - - - - -
27/02:30am 13.2 NNW 10 17 - - 0.0 - - - - - - -
27/02:00am 13.1 NNW 10 17 - - 0.0 - - - - - - -
27/01:30am 13.5 NNW 11 20 - - 0.0 - - - - - - -
27/01:00am 13.4 NNW 11 18 - - 0.0 - - - - - - -
27/12:30am 13.4 NNW 10 18 - - 0.0 - - - - - - -
27/12:00am 13.0 NNW 7 16 - - 0.0 - - - - - - -
 
Date/Time
EST
Temp

°C
Wind Pressure Rain
since 9am
mm
Weather Cloud Vis
km
Sea
Height
m
Swell
Dir
 
Speed
knots
Gust
knots
hPa Trend Height
m
Period
s
Dir
26/11:30pm 12.5 NNW 4 7 - - 0.0 - - - - - - -
26/11:00pm 11.4 NNE 4 6 - - 0.0 - - - - - - -
26/10:30pm 11.4 NE 5 7 - - 0.0 - - - - - - -
26/10:00pm 11.4 NE 5 8 - - 0.0 - - - - - - -
26/09:30pm 11.3 NNE 3 5 - - 0.0 - - - - - - -
26/09:00pm 10.6 NNE 2 3 - - 0.0 - - - - - - -
26/08:30pm 10.4 NNE 4 5 - - 0.0 - - - - - - -
26/08:00pm 10.8 N 3 4 - - 0.0 - - - - - - -
26/07:30pm 10.6 N 5 7 - - 0.0 - - - - - - -
26/07:00pm 10.7 NNE 6 7 - - 0.0 - - - - - - -
26/06:30pm 11.1 N 6 7 - - 0.0 - - - - - - -
26/06:00pm 11.5 N 5 7 - - 0.0 - - - - - - -
26/05:30pm 12.2 NNE 5 7 - - 0.0 - - - - - - -
26/05:00pm 12.7 NNE 5 6 - - 0.0 - - - - - - -

Other Formats:

Comma delimited format used in spreadsheet applications
http://www.bom.gov.au/fwo/IDV60701/IDV60701.94846.axf

JavaScript Object Notation format (JSON) in row-major order
http://www.bom.gov.au/fwo/IDV60701/IDV60701.94846.json